Погода Маргарет-Риверна 2 недели

Западная Австралия, Австралия

06 - 19 февраля
  • 06февраля
    Сегодня
    +18°
    +29°
    Ясно и безоблачно
    ВремяПогодаТемператураВлажностьДавлениеВетер, м/сВероятность осадков
    02:00Небольшая облачность+20°C87 %755 мм7.7 м/с3 %
    05:00Практически безоблачно+19°C88 %755 мм6.6 м/с3 %
    08:00Практически безоблачно+23°C73 %757 мм8.4 м/с7 %
    11:00Практически безоблачно+27°C56 %756 мм8.1 м/с4 %
    14:00Ясно и безоблачно+29°C49 %756 мм8.7 м/с4 %
    17:00Практически безоблачно+28°C54 %756 мм9.7 м/с3 %
    20:00Ясно и безоблачно+22°C76 %758 мм7.7 м/с4 %
    23:00Ясно и безоблачно+20°C84 %758 мм6.6 м/с4 %
  • 07февраля
    Вторник
    +16°
    +29°
    Ясно и безоблачно
    ВремяПогодаТемператураВлажностьДавлениеВетер, м/сВероятность осадков
    02:00Ясно и безоблачно+18°C90 %758 мм5.8 м/с3 %
    05:00Практически безоблачно+18°C87 %758 мм5.8 м/с4 %
    08:00Практически безоблачно+22°C71 %759 мм7.5 м/с7 %
    11:00Облачно с прояснениями+27°C52 %759 мм6.9 м/с4 %
    14:00Ясно и безоблачно+29°C48 %757 мм7.7 м/с5 %
    17:00Ясно и безоблачно+28°C55 %758 мм10.3 м/с5 %
    20:00Ясно и безоблачно+22°C69 %759 мм8.7 м/с5 %
    23:00Ясно и безоблачно+20°C75 %759 мм7.2 м/с5 %
  • 08февраля
    Среда
    +15°
    +30°
    Ясно и безоблачно
    ВремяПогодаТемператураВлажностьДавлениеВетер, м/сВероятность осадков
    02:00Ясно и безоблачно+18°C82 %759 мм6.2 м/с5 %
    05:00Ясно и безоблачно+16°C87 %759 мм4.7 м/с5 %
    08:00Ясно и безоблачно+21°C70 %760 мм6.3 м/с5 %
    11:00Ясно и безоблачно+27°C60 %759 мм3.6 м/с5 %
    14:00Ясно и безоблачно+29°C60 %757 мм7.7 м/с5 %
    17:00Ясно и безоблачно+29°C53 %757 мм9.3 м/с5 %
    20:00Ясно и безоблачно+21°C70 %759 мм8.0 м/с5 %
    23:00Ясно и безоблачно+19°C76 %759 мм6.7 м/с5 %
  • 09февраля
    Четверг
    +14°
    +30°
    Ясно и безоблачно
    ВремяПогодаТемператураВлажностьДавлениеВетер, м/сВероятность осадков
    02:00Ясно и безоблачно+18°C79 %759 мм5.2 м/с5 %
    05:00Ясно и безоблачно+15°C84 %759 мм5.2 м/с5 %
    08:00Ясно и безоблачно+20°C73 %760 мм6.3 м/с5 %
    11:00Ясно и безоблачно+27°C52 %759 мм5.9 м/с5 %
    14:00Ясно и безоблачно+29°C52 %757 мм5.6 м/с5 %
    17:00Ясно и безоблачно+29°C52 %757 мм9.8 м/с5 %
    20:00Ясно и безоблачно+21°C69 %758 мм8.3 м/с5 %
    23:00Ясно и безоблачно+19°C77 %758 мм6.7 м/с5 %
  • 10февраля
    Пятница
    +12°
    +27°
    Ясно и безоблачно
    ВремяПогодаТемператураВлажностьДавлениеВетер, м/сВероятность осадков
    02:00Ясно и безоблачно+17°C80 %757 мм6.2 м/с5 %
    05:00Ясно и безоблачно+15°C88 %757 мм5.0 м/с5 %
    08:00Ясно и безоблачно+20°C74 %758 мм6.3 м/с5 %
    11:00Облачно с прояснениями+25°C53 %758 мм8.9 м/с5 %
    14:00Ясно и безоблачно+26°C52 %757 мм9.8 м/с4 %
    17:00Облачно с прояснениями+25°C55 %757 мм11.1 м/с5 %
    20:00Практически безоблачно+19°C73 %759 мм8.8 м/с5 %
    23:00Ясно и безоблачно+17°C74 %760 мм7.1 м/с5 %
Мы используем cookies
Соглашаюсь